Time;durP1;ratioP1;P1;durP2;ratioP2;P2;SDS_P1;SDS_P2;PMS_P1;PMS_P2;Temp;Humidity;BMP_temperature;BMP_pressure;BME280_temperature;BME280_humidity;BME280_pressure;Samples;Min_cycle;Max_cycle;Signal;HPM_P1;HPM_P2
2023/02/04 00:01:07;;;;;;;2.58;1.30;;;;;;;;;;5034112;28;20749;-84
2023/02/04 00:03:33;;;;;;;3.08;1.55;;;;;;;;;;5033303;28;20427;-83
2023/02/04 00:05:59;;;;;;;1.40;1.30;;;;;;;;;;5035845;28;20743;-84
2023/02/04 00:08:25;;;;;;;1.45;1.30;;;;;;;;;;5015095;28;20383;-84
2023/02/04 00:10:50;;;;;;;1.60;1.40;;;;;;;;;;5039462;28;20392;-84
2023/02/04 00:13:16;;;;;;;1.73;1.50;;;;;;;;;;5037595;28;20751;-85
2023/02/04 00:15:42;;;;;;;2.15;1.50;;;;;;;;;;5038545;28;20394;-84
2023/02/04 00:18:08;;;;;;;1.83;1.52;;;;;;;;;;5018712;28;20793;-84
2023/02/04 00:20:34;;;;;;;1.50;1.35;;;;;;;;;;5033949;28;20391;-84
2023/02/04 00:23:00;;;;;;;1.50;1.33;;;;;;;;;;5033238;28;20401;-85
2023/02/04 00:25:26;;;;;;;2.10;1.30;;;;;;;;;;5036202;28;20394;-83
2023/02/04 00:27:52;;;;;;;2.42;1.40;;;;;;;;;;5044360;28;20465;-82
2023/02/04 00:30:19;;;;;;;2.72;1.40;;;;;;;;;;5044312;28;20387;-86
2023/02/04 00:32:45;;;;;;;2.45;1.55;;;;;;;;;;5036447;28;20403;-84
2023/02/04 00:35:11;;;;;;;1.70;1.40;;;;;;;;;;5033331;28;20403;-83
2023/02/04 00:37:37;;;;;;;1.98;1.40;;;;;;;;;;5035595;28;20714;-84
2023/02/04 00:40:03;;;;;;;1.40;1.30;;;;;;;;;;5036582;28;20375;-83
2023/02/04 00:42:29;;;;;;;2.30;1.63;;;;;;;;;;5016250;28;20387;-83
2023/02/04 00:44:55;;;;;;;1.58;1.48;;;;;;;;;;5040191;28;20374;-84
2023/02/04 00:47:21;;;;;;;1.50;1.30;;;;;;;;;;5033782;28;20398;-84
2023/02/04 00:49:47;;;;;;;1.38;1.27;;;;;;;;;;5032840;28;20383;-85
2023/02/04 00:52:13;;;;;;;2.40;1.67;;;;;;;;;;5014604;28;20473;-84
2023/02/04 00:54:39;;;;;;;1.77;1.40;;;;;;;;;;5036445;28;20876;-84
2023/02/04 00:57:05;;;;;;;2.20;1.63;;;;;;;;;;5035327;28;20441;-84
2023/02/04 00:59:31;;;;;;;1.70;1.42;;;;;;;;;;5032036;28;20466;-84
2023/02/04 01:01:57;;;;;;;2.90;1.50;;;;;;;;;;5015829;28;20390;-84
2023/02/04 01:04:22;;;;;;;1.70;1.42;;;;;;;;;;5034524;28;20375;-84
2023/02/04 01:06:48;;;;;;;1.80;1.70;;;;;;;;;;5035780;28;20391;-83
2023/02/04 01:09:14;;;;;;;1.70;1.60;;;;;;;;;;5037198;28;20440;-84
2023/02/04 01:11:40;;;;;;;2.00;1.50;;;;;;;;;;5037963;28;20900;-84
2023/02/04 01:14:06;;;;;;;1.60;1.33;;;;;;;;;;5037876;28;20373;-84
2023/02/04 01:16:32;;;;;;;1.75;1.50;;;;;;;;;;5036381;28;20379;-85
2023/02/04 01:18:59;;;;;;;1.42;1.33;;;;;;;;;;5021068;28;20431;-84
2023/02/04 01:21:25;;;;;;;2.27;1.73;;;;;;;;;;5038023;28;20399;-85
2023/02/04 01:23:51;;;;;;;1.92;1.60;;;;;;;;;;5019789;28;20384;-83
2023/02/04 01:26:20;;;;;;;1.83;1.70;;;;;;;;;;5037200;28;20462;-85
2023/02/04 01:28:46;;;;;;;1.75;1.65;;;;;;;;;;5037703;28;20422;-84
2023/02/04 01:31:13;;;;;;;1.90;1.77;;;;;;;;;;5023203;28;20410;-84
2023/02/04 01:33:39;;;;;;;3.13;1.83;;;;;;;;;;5020118;28;20385;-84
2023/02/04 01:36:05;;;;;;;2.10;1.90;;;;;;;;;;5036639;28;20407;-84
2023/02/04 01:38:34;;;;;;;2.13;1.60;;;;;;;;;;5017006;28;20386;-84
2023/02/04 01:41:00;;;;;;;2.30;2.10;;;;;;;;;;5034512;28;20383;-84
2023/02/04 01:43:27;;;;;;;2.17;2.05;;;;;;;;;;5035576;28;20375;-84
2023/02/04 01:45:53;;;;;;;2.25;2.05;;;;;;;;;;5035688;28;20379;-84
2023/02/04 01:48:20;;;;;;;2.53;1.90;;;;;;;;;;5036631;28;20379;-85
2023/02/04 01:50:47;;;;;;;2.28;2.10;;;;;;;;;;5035392;28;20377;-85
2023/02/04 01:53:15;;;;;;;2.45;2.25;;;;;;;;;;5016377;28;20436;-85
2023/02/04 01:55:41;;;;;;;2.80;2.22;;;;;;;;;;5036371;28;20422;-84
2023/02/04 01:58:09;;;;;;;2.00;1.90;;;;;;;;;;5022351;28;20375;-83
2023/02/04 02:00:35;;;;;;;2.30;2.10;;;;;;;;;;5038823;28;20432;-83
2023/02/04 02:03:03;;;;;;;2.45;2.25;;;;;;;;;;5040990;28;20391;-83
2023/02/04 02:05:36;;;;;;;2.20;2.00;;;;;;;;;;5037037;28;20730;-84
2023/02/04 02:08:04;;;;;;;2.35;2.15;;;;;;;;;;5036007;28;20900;-84
2023/02/04 02:10:30;;;;;;;2.60;2.40;;;;;;;;;;5038027;28;20832;-84
2023/02/04 02:12:57;;;;;;;2.50;2.30;;;;;;;;;;5022213;28;20443;-84
2023/02/04 02:15:23;;;;;;;2.20;2.10;;;;;;;;;;5039340;28;20387;-83
2023/02/04 02:17:50;;;;;;;2.20;2.10;;;;;;;;;;5037764;28;20915;-84
2023/02/04 02:20:17;;;;;;;2.30;2.10;;;;;;;;;;5036046;28;20417;-84
2023/02/04 02:23:10;;;;;;;2.70;2.03;;;;;;;;;;5038310;28;20390;-85
2023/02/04 02:25:36;;;;;;;2.50;2.30;;;;;;;;;;5012013;28;20472;-85
2023/02/04 02:28:03;;;;;;;2.28;2.05;;;;;;;;;;5037954;28;20414;-85
2023/02/04 02:30:29;;;;;;;2.28;2.08;;;;;;;;;;5035767;28;20379;-85
2023/02/04 02:32:55;;;;;;;2.15;1.95;;;;;;;;;;5018129;28;20930;-84
2023/02/04 02:35:21;;;;;;;2.40;2.20;;;;;;;;;;5035089;28;20414;-84
2023/02/04 02:37:47;;;;;;;2.10;1.90;;;;;;;;;;5016851;28;20480;-84
2023/02/04 02:40:14;;;;;;;2.22;2.03;;;;;;;;;;5042333;28;20413;-85
2023/02/04 02:42:41;;;;;;;2.20;1.95;;;;;;;;;;5023593;28;20823;-85
2023/02/04 02:45:11;;;;;;;2.08;1.88;;;;;;;;;;5037293;28;20387;-84
2023/02/04 02:47:37;;;;;;;2.30;2.10;;;;;;;;;;5035893;28;20518;-85
2023/02/04 02:50:03;;;;;;;2.40;2.10;;;;;;;;;;5035927;28;20423;-85
2023/02/04 02:52:29;;;;;;;2.20;2.10;;;;;;;;;;5017712;28;20476;-84
2023/02/04 02:54:55;;;;;;;2.20;2.05;;;;;;;;;;5038628;28;20376;-85
2023/02/04 02:57:22;;;;;;;2.22;2.08;;;;;;;;;;5039455;28;20862;-85
2023/02/04 02:59:49;;;;;;;2.47;2.30;;;;;;;;;;5036308;28;20430;-85
2023/02/04 03:02:17;;;;;;;2.38;2.15;;;;;;;;;;5037571;28;20381;-85
2023/02/04 03:04:48;;;;;;;2.42;2.20;;;;;;;;;;5035332;28;20768;-82
2023/02/04 03:07:15;;;;;;;2.30;2.10;;;;;;;;;;5035839;28;20384;-84
2023/02/04 03:09:41;;;;;;;3.60;2.50;;;;;;;;;;5039655;28;20444;-85
2023/02/04 03:12:07;;;;;;;2.50;2.30;;;;;;;;;;5034803;28;20411;-84
2023/02/04 03:14:34;;;;;;;2.42;2.22;;;;;;;;;;5036494;28;20418;-84
2023/02/04 03:17:02;;;;;;;2.40;2.20;;;;;;;;;;5019242;28;20412;-83
2023/02/04 03:19:28;;;;;;;2.38;2.17;;;;;;;;;;5036884;28;20779;-83
2023/02/04 03:21:55;;;;;;;2.35;2.15;;;;;;;;;;5017217;28;20391;-84
2023/02/04 03:24:22;;;;;;;2.40;2.20;;;;;;;;;;5036207;28;20432;-84
2023/02/04 03:26:48;;;;;;;2.67;2.30;;;;;;;;;;5039091;28;20401;-83
2023/02/04 03:29:14;;;;;;;3.10;2.50;;;;;;;;;;5037701;28;20383;-85
2023/02/04 03:31:40;;;;;;;2.90;2.55;;;;;;;;;;5020924;28;20538;-85
2023/02/04 03:34:06;;;;;;;2.90;2.70;;;;;;;;;;5036656;28;20410;-84
2023/02/04 03:36:32;;;;;;;3.13;2.47;;;;;;;;;;5042097;28;20908;-85
2023/02/04 03:38:58;;;;;;;2.50;2.30;;;;;;;;;;5017662;28;20608;-83
2023/02/04 03:41:24;;;;;;;3.13;2.50;;;;;;;;;;5024742;28;20442;-84
2023/02/04 03:43:50;;;;;;;3.10;2.83;;;;;;;;;;5044244;28;20390;-84
2023/02/04 03:46:16;;;;;;;3.80;2.60;;;;;;;;;;5023403;28;20393;-84
2023/02/04 03:48:42;;;;;;;2.70;2.50;;;;;;;;;;5040027;28;20453;-83
2023/02/04 03:51:08;;;;;;;2.92;2.72;;;;;;;;;;5016932;28;20383;-84
2023/02/04 03:53:34;;;;;;;3.10;2.90;;;;;;;;;;5034618;28;20388;-84
2023/02/04 03:56:00;;;;;;;2.90;2.70;;;;;;;;;;5034639;28;20383;-82
2023/02/04 03:58:25;;;;;;;3.45;3.00;;;;;;;;;;5048452;28;20915;-83
2023/02/04 04:00:52;;;;;;;3.38;3.17;;;;;;;;;;5028937;28;20395;-84
2023/02/04 04:03:18;;;;;;;3.40;3.10;;;;;;;;;;5040736;28;20880;-85
2023/02/04 04:05:44;;;;;;;3.50;3.30;;;;;;;;;;5025108;28;20871;-85
2023/02/04 04:08:10;;;;;;;3.47;3.25;;;;;;;;;;5037956;28;20379;-85
2023/02/04 04:10:36;;;;;;;3.47;3.17;;;;;;;;;;5037621;28;20386;-85
2023/02/04 04:13:02;;;;;;;3.75;3.45;;;;;;;;;;5036743;28;20493;-84
2023/02/04 04:15:28;;;;;;;4.55;3.90;;;;;;;;;;5038244;28;20420;-85
2023/02/04 04:17:54;;;;;;;4.47;4.07;;;;;;;;;;5032249;28;20794;-84
2023/02/04 04:20:24;;;;;;;4.45;4.05;;;;;;;;;;5035079;28;20383;-85
2023/02/04 04:22:50;;;;;;;4.82;4.43;;;;;;;;;;5035220;28;20748;-85
2023/02/04 04:25:16;;;;;;;4.60;4.20;;;;;;;;;;5036776;28;20383;-84
2023/02/04 04:27:42;;;;;;;4.05;3.75;;;;;;;;;;5017351;28;20387;-85
2023/02/04 04:30:08;;;;;;;4.22;3.92;;;;;;;;;;5035765;28;20389;-85
2023/02/04 04:32:34;;;;;;;4.40;4.10;;;;;;;;;;5033770;28;20415;-85
2023/02/04 04:35:00;;;;;;;4.80;4.40;;;;;;;;;;5016489;28;20413;-85
2023/02/04 04:37:26;;;;;;;4.70;4.40;;;;;;;;;;5032878;28;20371;-85
2023/02/04 04:39:52;;;;;;;4.90;4.43;;;;;;;;;;5032693;28;20452;-85
2023/02/04 04:42:18;;;;;;;5.10;4.70;;;;;;;;;;5030829;28;20402;-83
2023/02/04 04:44:44;;;;;;;5.03;4.63;;;;;;;;;;5034699;28;20391;-83
2023/02/04 04:47:10;;;;;;;5.13;4.72;;;;;;;;;;5038986;28;20899;-84
2023/02/04 04:49:36;;;;;;;5.20;4.70;;;;;;;;;;5036382;28;20379;-84
2023/02/04 04:52:02;;;;;;;5.38;4.97;;;;;;;;;;5016430;28;20821;-84
2023/02/04 04:54:31;;;;;;;5.75;5.35;;;;;;;;;;5040875;28;20409;-85
2023/02/04 04:56:56;;;;;;;5.20;4.82;;;;;;;;;;5032337;28;20416;-85
2023/02/04 04:59:22;;;;;;;5.70;5.30;;;;;;;;;;5033096;28;20736;-85
2023/02/04 05:01:48;;;;;;;5.80;5.38;;;;;;;;;;5049290;28;20392;-85
2023/02/04 05:04:14;;;;;;;6.05;5.65;;;;;;;;;;5052090;28;20385;-85
2023/02/04 05:06:40;;;;;;;6.10;5.60;;;;;;;;;;5051710;28;20386;-82
2023/02/04 05:09:08;;;;;;;6.20;5.70;;;;;;;;;;5051136;28;20385;-84
2023/02/04 05:11:34;;;;;;;6.23;5.73;;;;;;;;;;5051076;28;20458;-85
2023/02/04 05:14:00;;;;;;;6.00;5.60;;;;;;;;;;5033967;28;20935;-84
2023/02/04 05:16:26;;;;;;;5.80;5.40;;;;;;;;;;5051540;28;20381;-84
2023/02/04 05:18:52;;;;;;;6.20;5.72;;;;;;;;;;5049204;28;20386;-84
2023/02/04 05:21:18;;;;;;;6.68;6.18;;;;;;;;;;5050101;28;20866;-83
2023/02/04 05:23:44;;;;;;;6.43;5.93;;;;;;;;;;5036552;28;20398;-84
2023/02/04 05:26:10;;;;;;;6.35;5.82;;;;;;;;;;5034993;28;20391;-84
2023/02/04 05:28:36;;;;;;;6.72;6.10;;;;;;;;;;5038757;28;20462;-84
2023/02/04 05:31:02;;;;;;;5.90;5.45;;;;;;;;;;5033482;28;20751;-84
2023/02/04 05:33:28;;;;;;;6.30;5.80;;;;;;;;;;5027471;28;20412;-84
2023/02/04 05:35:54;;;;;;;6.13;5.63;;;;;;;;;;5038175;28;20403;-84
2023/02/04 05:38:20;;;;;;;5.50;5.10;;;;;;;;;;5033329;28;20494;-84
2023/02/04 05:40:48;;;;;;;5.68;5.28;;;;;;;;;;5033697;28;20439;-84
2023/02/04 05:43:14;;;;;;;5.40;5.00;;;;;;;;;;5031096;28;20776;-84
2023/02/04 05:45:40;;;;;;;5.40;5.00;;;;;;;;;;5035159;28;20861;-85
2023/02/04 05:48:06;;;;;;;5.47;5.03;;;;;;;;;;5033588;28;20815;-85
2023/02/04 05:50:32;;;;;;;5.20;4.80;;;;;;;;;;5034933;28;20489;-85
2023/02/04 05:52:58;;;;;;;4.78;4.47;;;;;;;;;;5036234;28;20411;-84
2023/02/04 05:55:24;;;;;;;4.88;4.53;;;;;;;;;;5018381;28;20859;-85
2023/02/04 05:57:50;;;;;;;5.00;4.70;;;;;;;;;;5038757;28;20606;-85
2023/02/04 06:00:16;;;;;;;5.30;4.83;;;;;;;;;;5017533;28;20466;-84
2023/02/04 06:02:42;;;;;;;5.78;5.28;;;;;;;;;;5036631;28;20405;-85
2023/02/04 06:05:09;;;;;;;5.10;4.80;;;;;;;;;;5036347;28;20421;-85
2023/02/04 06:07:35;;;;;;;4.97;4.57;;;;;;;;;;5041361;28;20409;-85
2023/02/04 06:10:01;;;;;;;4.80;4.50;;;;;;;;;;5035598;28;20877;-85
2023/02/04 06:12:27;;;;;;;5.20;4.57;;;;;;;;;;5034352;28;20415;-85
2023/02/04 06:14:53;;;;;;;5.10;4.80;;;;;;;;;;5016515;28;20391;-84
2023/02/04 06:17:19;;;;;;;5.32;4.63;;;;;;;;;;5034686;28;20429;-85
2023/02/04 06:19:45;;;;;;;5.30;4.90;;;;;;;;;;5034921;28;20476;-85
2023/02/04 06:22:11;;;;;;;5.53;5.13;;;;;;;;;;5036073;28;20383;-85
2023/02/04 06:24:37;;;;;;;5.00;4.70;;;;;;;;;;5034097;28;20394;-85
2023/02/04 06:27:03;;;;;;;4.60;4.20;;;;;;;;;;5036294;28;20930;-85
2023/02/04 06:29:29;;;;;;;4.70;4.30;;;;;;;;;;5034005;28;20449;-85
2023/02/04 06:31:55;;;;;;;4.77;4.37;;;;;;;;;;5046082;28;20405;-84
2023/02/04 06:34:21;;;;;;;3.85;3.55;;;;;;;;;;5054315;28;20410;-85
2023/02/04 06:36:47;;;;;;;4.28;3.88;;;;;;;;;;5054787;28;20452;-85
2023/02/04 06:39:13;;;;;;;4.47;4.07;;;;;;;;;;5054271;28;20416;-84
2023/02/04 06:41:39;;;;;;;4.00;3.70;;;;;;;;;;5036183;28;20951;-85
2023/02/04 06:44:05;;;;;;;4.33;4.03;;;;;;;;;;5053605;28;20481;-85
2023/02/04 06:46:31;;;;;;;4.50;4.20;;;;;;;;;;5053246;28;20464;-85
2023/02/04 06:48:57;;;;;;;4.43;4.13;;;;;;;;;;5054051;28;20471;-86
2023/02/04 06:51:23;;;;;;;4.50;4.20;;;;;;;;;;5051905;28;20409;-85
2023/02/04 06:53:49;;;;;;;3.77;3.47;;;;;;;;;;5054056;28;20378;-83
2023/02/04 06:56:15;;;;;;;3.60;3.30;;;;;;;;;;5053526;28;20381;-83
2023/02/04 06:58:41;;;;;;;3.22;3.03;;;;;;;;;;5052216;28;20388;-84
2023/02/04 07:01:07;;;;;;;3.70;3.25;;;;;;;;;;5035083;28;20950;-83
2023/02/04 07:03:33;;;;;;;3.40;3.20;;;;;;;;;;5048061;28;20777;-83
2023/02/04 07:05:59;;;;;;;3.45;3.08;;;;;;;;;;5051018;28;20385;-83
2023/02/04 07:08:25;;;;;;;3.47;3.28;;;;;;;;;;5035441;28;20381;-83
2023/02/04 07:10:51;;;;;;;3.57;3.30;;;;;;;;;;5034851;28;20381;-83
2023/02/04 07:13:17;;;;;;;3.53;3.33;;;;;;;;;;5053836;28;20430;-83
2023/02/04 07:15:43;;;;;;;3.35;3.05;;;;;;;;;;5053374;28;20381;-83
2023/02/04 07:18:09;;;;;;;3.22;2.92;;;;;;;;;;5050849;28;20381;-83
2023/02/04 07:20:35;;;;;;;3.28;2.90;;;;;;;;;;5036413;28;20393;-83
2023/02/04 07:23:01;;;;;;;3.60;3.30;;;;;;;;;;5053815;28;20385;-83
2023/02/04 07:25:27;;;;;;;3.55;3.25;;;;;;;;;;5048799;28;20435;-83
2023/02/04 07:27:55;;;;;;;3.50;3.20;;;;;;;;;;5064632;28;20382;-81
2023/02/04 07:30:21;;;;;;;3.53;3.22;;;;;;;;;;5064484;28;20388;-83
2023/02/04 07:32:47;;;;;;;3.00;2.80;;;;;;;;;;5056687;28;20414;-83
2023/02/04 07:35:13;;;;;;;3.83;3.53;;;;;;;;;;5056047;28;20401;-82
2023/02/04 07:37:39;;;;;;;3.88;3.58;;;;;;;;;;5040939;28;20388;-83
2023/02/04 07:40:05;;;;;;;3.92;3.63;;;;;;;;;;5056600;28;20378;-82
2023/02/04 07:42:31;;;;;;;3.17;2.97;;;;;;;;;;5055299;28;20395;-83
2023/02/04 07:44:57;;;;;;;3.00;2.70;;;;;;;;;;5055372;28;20378;-83
2023/02/04 07:47:23;;;;;;;4.40;4.10;;;;;;;;;;5054866;28;20789;-83
2023/02/04 07:49:49;;;;;;;3.30;3.00;;;;;;;;;;5035540;28;20405;-83
2023/02/04 07:52:15;;;;;;;2.90;2.70;;;;;;;;;;5053861;28;20413;-83
2023/02/04 07:54:41;;;;;;;2.75;2.55;;;;;;;;;;5051115;28;20397;-82
2023/02/04 07:57:07;;;;;;;3.22;2.83;;;;;;;;;;5046571;28;20781;-83
2023/02/04 07:59:33;;;;;;;2.90;2.60;;;;;;;;;;5053505;28;20464;-82
2023/02/04 08:02:00;;;;;;;2.50;2.30;;;;;;;;;;5051808;28;20400;-83
2023/02/04 08:04:26;;;;;;;2.40;2.22;;;;;;;;;;5053690;28;20924;-83
2023/02/04 08:06:52;;;;;;;3.20;3.00;;;;;;;;;;5053560;28;20516;-83
2023/02/04 08:09:19;;;;;;;3.78;3.47;;;;;;;;;;5053646;28;20409;-82
2023/02/04 08:11:45;;;;;;;3.40;3.10;;;;;;;;;;5053488;28;20405;-83
2023/02/04 08:14:11;;;;;;;3.30;3.10;;;;;;;;;;5052385;28;20370;-82
2023/02/04 08:16:37;;;;;;;4.43;4.03;;;;;;;;;;5052712;28;20380;-82
2023/02/04 08:19:03;;;;;;;4.05;3.75;;;;;;;;;;5052164;28;20382;-82
2023/02/04 08:21:29;;;;;;;4.68;4.30;;;;;;;;;;5051527;28;20451;-82
2023/02/04 08:23:55;;;;;;;4.30;4.00;;;;;;;;;;5052483;28;20417;-82
2023/02/04 08:26:21;;;;;;;4.07;3.78;;;;;;;;;;5052333;28;20460;-82
2023/02/04 08:28:47;;;;;;;4.18;3.85;;;;;;;;;;5051814;28;20420;-83
2023/02/04 08:31:13;;;;;;;3.95;3.40;;;;;;;;;;5033157;28;20401;-85
2023/02/04 08:33:39;;;;;;;4.50;4.10;;;;;;;;;;5034475;28;20393;-84
2023/02/04 08:36:06;;;;;;;4.30;3.90;;;;;;;;;;5048813;28;20534;-83
2023/02/04 08:38:32;;;;;;;4.53;4.15;;;;;;;;;;5034234;28;20386;-84
2023/02/04 08:40:58;;;;;;;8.40;6.20;;;;;;;;;;5052362;28;20457;-84
2023/02/04 08:43:25;;;;;;;4.73;4.23;;;;;;;;;;5050127;28;20477;-84
2023/02/04 08:45:51;;;;;;;4.13;3.50;;;;;;;;;;5051880;28;20515;-85
2023/02/04 08:48:17;;;;;;;4.15;3.72;;;;;;;;;;5052265;28;20410;-84
2023/02/04 08:50:43;;;;;;;13.80;12.25;;;;;;;;;;5034978;28;20394;-84
2023/02/04 08:53:09;;;;;;;5.40;4.90;;;;;;;;;;5052759;28;20409;-84
2023/02/04 08:55:35;;;;;;;5.07;4.68;;;;;;;;;;5051612;28;20385;-84
2023/02/04 08:58:01;;;;;;;5.47;5.07;;;;;;;;;;5051380;28;20382;-83
2023/02/04 09:00:28;;;;;;;4.70;4.38;;;;;;;;;;5052558;28;20442;-84
2023/02/04 09:02:54;;;;;;;4.50;4.10;;;;;;;;;;5052544;28;20477;-84
2023/02/04 09:05:20;;;;;;;3.90;3.63;;;;;;;;;;5051697;28;20484;-84
2023/02/04 09:07:46;;;;;;;3.67;3.47;;;;;;;;;;5049455;28;20394;-83
2023/02/04 09:10:12;;;;;;;2.90;2.70;;;;;;;;;;5052078;28;20394;-86
2023/02/04 09:12:38;;;;;;;3.15;2.85;;;;;;;;;;5050647;28;20478;-84
2023/02/04 09:15:04;;;;;;;1.87;1.77;;;;;;;;;;5052166;28;20423;-85
2023/02/04 09:17:31;;;;;;;2.15;1.95;;;;;;;;;;5049893;28;20390;-85
2023/02/04 09:19:57;;;;;;;2.20;1.63;;;;;;;;;;5052145;28;20380;-86
2023/02/04 09:22:22;;;;;;;1.52;1.42;;;;;;;;;;5052031;28;20389;-84
2023/02/04 09:24:49;;;;;;;1.65;1.27;;;;;;;;;;5041837;28;20881;-86
2023/02/04 09:27:15;;;;;;;1.35;1.25;;;;;;;;;;5055892;28;20396;-87
2023/02/04 09:29:41;;;;;;;1.13;1.10;;;;;;;;;;5054435;28;20378;-84
2023/02/04 09:32:07;;;;;;;1.25;1.15;;;;;;;;;;5056023;28;20409;-83
2023/02/04 09:34:33;;;;;;;1.20;1.10;;;;;;;;;;5055755;28;20492;-84
2023/02/04 09:36:59;;;;;;;1.65;1.48;;;;;;;;;;5055830;28;20385;-82
2023/02/04 09:39:25;;;;;;;2.33;2.00;;;;;;;;;;5055992;28;20373;-82
2023/02/04 09:41:53;;;;;;;1.20;1.10;;;;;;;;;;5056979;28;20389;-83
2023/02/04 09:44:20;;;;;;;3.03;2.83;;;;;;;;;;5055592;28;20444;-83
2023/02/04 09:46:50;;;;;;;3.03;2.83;;;;;;;;;;5054604;28;20381;-83
2023/02/04 09:49:16;;;;;;;1.10;0.80;;;;;;;;;;5055763;28;20377;-83
2023/02/04 09:51:43;;;;;;;1.50;0.60;;;;;;;;;;5035038;28;20414;-80
2023/02/04 09:54:14;;;;;;;0.50;0.50;;;;;;;;;;5049625;28;20943;-81
2023/02/04 09:56:40;;;;;;;1.83;1.73;;;;;;;;;;5051210;28;20389;-82
2023/02/04 09:59:13;;;;;;;1.90;1.80;;;;;;;;;;5055028;28;20369;-81
2023/02/04 10:01:40;;;;;;;1.73;1.63;;;;;;;;;;5054872;28;20427;-82
2023/02/04 10:04:09;;;;;;;1.77;1.23;;;;;;;;;;5037235;28;20763;-82
2023/02/04 10:06:36;;;;;;;1.40;1.30;;;;;;;;;;5037837;28;20828;-81
2023/02/04 10:09:02;;;;;;;1.02;0.85;;;;;;;;;;5053652;28;20379;-81
2023/02/04 10:11:32;;;;;;;1.08;0.98;;;;;;;;;;5054385;28;20397;-82
2023/02/04 10:13:58;;;;;;;0.55;0.50;;;;;;;;;;5054464;28;20431;-82
2023/02/04 10:16:28;;;;;;;0.82;0.70;;;;;;;;;;5054764;28;20377;-84
2023/02/04 10:18:55;;;;;;;0.70;0.50;;;;;;;;;;5053943;28;20373;-82
2023/02/04 10:21:24;;;;;;;0.68;0.55;;;;;;;;;;5053116;28;20755;-83
2023/02/04 10:23:51;;;;;;;1.20;0.70;;;;;;;;;;5054258;28;20416;-83
2023/02/04 10:26:18;;;;;;;1.00;0.70;;;;;;;;;;5055107;28;20405;-83
2023/02/04 10:28:44;;;;;;;0.70;0.70;;;;;;;;;;5037161;28;20392;-83
2023/02/04 10:31:29;;;;;;;0.60;0.60;;;;;;;;;;5054755;28;20747;-83
2023/02/04 10:34:07;;;;;;;1.27;0.70;;;;;;;;;;5055002;28;20433;-83
2023/02/04 10:36:33;;;;;;;1.52;0.85;;;;;;;;;;5055014;28;20439;-83
2023/02/04 10:39:00;;;;;;;0.93;0.80;;;;;;;;;;5055021;28;20460;-84
2023/02/04 10:41:26;;;;;;;1.35;0.95;;;;;;;;;;5056147;28;20596;-82
2023/02/04 10:44:02;;;;;;;1.10;0.90;;;;;;;;;;5055965;28;20882;-82
2023/02/04 10:46:30;;;;;;;10.38;7.38;;;;;;;;;;5057014;28;20861;-83
2023/02/04 10:48:56;;;;;;;7.82;4.20;;;;;;;;;;5054885;28;20377;-84
2023/02/04 10:51:22;;;;;;;2.20;1.20;;;;;;;;;;5055525;28;20408;-84
2023/02/04 10:56:33;;;;;;;4.85;1.20;;;;;;;;;;5051503;28;20416;-82
2023/02/04 10:58:59;;;;;;;3.97;2.40;;;;;;;;;;5051222;28;20577;-82
2023/02/04 11:01:26;;;;;;;2.10;1.10;;;;;;;;;;5062775;28;20390;-82
2023/02/04 11:03:52;;;;;;;1.50;0.90;;;;;;;;;;5050099;28;20391;-81
2023/02/04 11:06:22;;;;;;;2.40;1.00;;;;;;;;;;5045156;28;20522;-82
2023/02/04 11:08:50;;;;;;;1.97;1.70;;;;;;;;;;5041917;28;20526;-82
2023/02/04 11:11:23;;;;;;;3.13;2.33;;;;;;;;;;5040010;28;20379;-82
2023/02/04 11:13:49;;;;;;;4.78;4.28;;;;;;;;;;5037785;28;20375;-83
2023/02/04 11:16:18;;;;;;;2.17;1.50;;;;;;;;;;5036621;28;20379;-83
2023/02/04 11:18:46;;;;;;;3.97;1.90;;;;;;;;;;5035808;28;20387;-82
2023/02/04 11:21:24;;;;;;;3.13;1.73;;;;;;;;;;5036133;28;20468;-82
2023/02/04 11:23:51;;;;;;;5.82;5.32;;;;;;;;;;5036738;28;20454;-82
2023/02/04 11:26:19;;;;;;;2.60;2.20;;;;;;;;;;5040591;28;20413;-83
2023/02/04 11:28:56;;;;;;;2.80;1.77;;;;;;;;;;5035774;28;20733;-83
2023/02/04 11:31:22;;;;;;;2.75;1.70;;;;;;;;;;5036744;28;20367;-83
2023/02/04 11:33:49;;;;;;;2.50;1.50;;;;;;;;;;5042811;28;20391;-83
2023/02/04 11:36:16;;;;;;;3.22;1.50;;;;;;;;;;5041258;28;20409;-82
2023/02/04 11:38:46;;;;;;;4.32;1.80;;;;;;;;;;5023236;28;20387;-82
2023/02/04 11:41:24;;;;;;;3.83;1.77;;;;;;;;;;5046673;28;20379;-82
2023/02/04 11:43:51;;;;;;;2.58;1.90;;;;;;;;;;5043230;28;20382;-82
2023/02/04 11:46:18;;;;;;;3.45;2.17;;;;;;;;;;5043030;28;20383;-82
2023/02/04 11:48:44;;;;;;;5.00;2.05;;;;;;;;;;5040758;28;20391;-82
2023/02/04 11:51:17;;;;;;;3.03;2.08;;;;;;;;;;5043057;28;20387;-83
2023/02/04 11:53:43;;;;;;;3.83;2.15;;;;;;;;;;5054178;28;20381;-82
2023/02/04 11:56:17;;;;;;;3.13;1.75;;;;;;;;;;5055054;28;20475;-83
2023/02/04 11:58:43;;;;;;;4.20;2.20;;;;;;;;;;5042491;28;20433;-83
2023/02/04 12:01:18;;;;;;;4.03;2.30;;;;;;;;;;5036703;28;20859;-83
2023/02/04 12:03:48;;;;;;;3.80;1.95;;;;;;;;;;5038909;28;20375;-83
2023/02/04 12:06:21;;;;;;;3.58;1.73;;;;;;;;;;5034005;28;20390;-83
2023/02/04 12:08:47;;;;;;;5.78;2.33;;;;;;;;;;5019941;28;20384;-83
2023/02/04 12:11:29;;;;;;;3.87;2.40;;;;;;;;;;5036981;28;20441;-82
2023/02/04 12:13:56;;;;;;;4.80;2.37;;;;;;;;;;5041016;28;20387;-83
2023/02/04 12:16:22;;;;;;;4.60;2.50;;;;;;;;;;5041772;28;20851;-84
2023/02/04 12:18:49;;;;;;;4.30;2.40;;;;;;;;;;5054723;28;20488;-84
2023/02/04 12:21:15;;;;;;;3.63;2.60;;;;;;;;;;5054188;28;20373;-83
2023/02/04 12:23:41;;;;;;;3.53;2.50;;;;;;;;;;5048799;28;20389;-84
2023/02/04 12:26:08;;;;;;;2.75;1.90;;;;;;;;;;5051980;28;20390;-83
2023/02/04 12:28:34;;;;;;;4.00;2.70;;;;;;;;;;5049316;28;20409;-83
2023/02/04 12:31:00;;;;;;;5.83;3.20;;;;;;;;;;5050385;28;20945;-83
2023/02/04 12:33:26;;;;;;;4.63;2.75;;;;;;;;;;5053597;28;20491;-82
2023/02/04 12:35:52;;;;;;;4.85;2.80;;;;;;;;;;5056176;28;20428;-82
2023/02/04 12:38:18;;;;;;;7.55;2.78;;;;;;;;;;5050789;28;20395;-84
2023/02/04 12:40:45;;;;;;;6.50;2.83;;;;;;;;;;5051361;28;20398;-82
2023/02/04 12:43:11;;;;;;;4.38;2.40;;;;;;;;;;5049863;28;20468;-81
2023/02/04 12:45:38;;;;;;;3.93;2.63;;;;;;;;;;5037785;28;20417;-83
2023/02/04 12:48:04;;;;;;;5.23;2.90;;;;;;;;;;5056221;28;20393;-82
2023/02/04 12:50:30;;;;;;;5.88;2.80;;;;;;;;;;5036162;28;20420;-81
2023/02/04 12:52:57;;;;;;;4.82;2.90;;;;;;;;;;5053899;28;20823;-83
2023/02/04 12:55:24;;;;;;;5.20;3.10;;;;;;;;;;5046354;28;20452;-82
2023/02/04 12:57:51;;;;;;;6.00;3.13;;;;;;;;;;5054180;28;20381;-83
2023/02/04 13:00:17;;;;;;;4.53;2.83;;;;;;;;;;5037000;28;20381;-81
2023/02/04 13:02:43;;;;;;;6.47;2.83;;;;;;;;;;5059475;28;20416;-83
2023/02/04 13:05:10;;;;;;;6.57;3.90;;;;;;;;;;5038681;28;20404;-82
2023/02/04 13:07:36;;;;;;;15.05;9.88;;;;;;;;;;5051524;28;20750;-81
2023/02/04 13:10:03;;;;;;;4.70;2.72;;;;;;;;;;5053108;28;20922;-82
2023/02/04 13:12:29;;;;;;;6.30;3.35;;;;;;;;;;5054186;28;20417;-84
2023/02/04 13:14:55;;;;;;;4.85;3.20;;;;;;;;;;5061695;28;20460;-83
2023/02/04 13:17:21;;;;;;;6.38;4.55;;;;;;;;;;5061757;28;20388;-82
2023/02/04 13:19:47;;;;;;;7.68;5.03;;;;;;;;;;5057770;28;20390;-82
2023/02/04 13:22:13;;;;;;;6.32;4.13;;;;;;;;;;5060153;28;20396;-85
2023/02/04 13:24:39;;;;;;;6.10;3.10;;;;;;;;;;5041456;28;20391;-84
2023/02/04 13:27:06;;;;;;;5.50;2.70;;;;;;;;;;5064679;28;20468;-82
2023/02/04 13:29:32;;;;;;;4.63;2.85;;;;;;;;;;5061234;28;20385;-85
2023/02/04 13:31:58;;;;;;;6.10;3.40;;;;;;;;;;5058801;28;20976;-83
2023/02/04 13:34:24;;;;;;;5.30;3.10;;;;;;;;;;5036160;28;20373;-84
2023/02/04 13:36:53;;;;;;;5.75;3.83;;;;;;;;;;5058191;28;20380;-83
2023/02/04 13:39:19;;;;;;;5.88;3.90;;;;;;;;;;5043495;28;20885;-84
2023/02/04 13:41:45;;;;;;;7.60;3.83;;;;;;;;;;5054366;28;20396;-85
2023/02/04 13:44:11;;;;;;;7.57;3.90;;;;;;;;;;5055288;28;20493;-84
2023/02/04 13:46:37;;;;;;;6.53;3.63;;;;;;;;;;5037393;28;20831;-82
2023/02/04 13:49:04;;;;;;;8.45;4.53;;;;;;;;;;5041116;28;20423;-82
2023/02/04 13:51:30;;;;;;;8.57;4.80;;;;;;;;;;5055549;28;20387;-83
2023/02/04 13:53:57;;;;;;;6.40;3.67;;;;;;;;;;5047417;28;20376;-84
2023/02/04 13:56:23;;;;;;;6.90;3.80;;;;;;;;;;5052898;28;20459;-83
2023/02/04 13:58:49;;;;;;;6.97;3.85;;;;;;;;;;5041593;28;20471;-84
2023/02/04 14:01:15;;;;;;;6.63;3.80;;;;;;;;;;5052263;28;20446;-84
2023/02/04 14:03:41;;;;;;;5.95;3.65;;;;;;;;;;5057351;28;20391;-86
2023/02/04 14:06:08;;;;;;;6.57;3.70;;;;;;;;;;5043234;28;20389;-83
2023/02/04 14:08:34;;;;;;;7.53;3.67;;;;;;;;;;5042469;28;20756;-83
2023/02/04 14:11:00;;;;;;;8.10;3.42;;;;;;;;;;5060197;28;20381;-83
2023/02/04 14:13:26;;;;;;;7.83;3.97;;;;;;;;;;5058317;28;20931;-84
2023/02/04 14:15:52;;;;;;;5.05;3.30;;;;;;;;;;5041298;28;20750;-83
2023/02/04 14:18:18;;;;;;;6.60;3.28;;;;;;;;;;5055791;28;20390;-85
2023/02/04 14:20:44;;;;;;;7.68;4.10;;;;;;;;;;5049579;28;20387;-85
2023/02/04 14:23:13;;;;;;;9.00;3.95;;;;;;;;;;5050333;28;20519;-84
2023/02/04 14:25:39;;;;;;;7.00;3.67;;;;;;;;;;5048610;28;20395;-83
2023/02/04 14:28:06;;;;;;;7.55;5.00;;;;;;;;;;5058742;28;20885;-84
2023/02/04 14:30:32;;;;;;;9.38;4.63;;;;;;;;;;5058695;28;20399;-84
2023/02/04 14:32:58;;;;;;;8.17;4.40;;;;;;;;;;5059724;28;20409;-84
2023/02/04 14:35:25;;;;;;;8.30;4.05;;;;;;;;;;5059045;28;20461;-85
2023/02/04 14:37:51;;;;;;;8.15;4.50;;;;;;;;;;5062896;28;20381;-86
2023/02/04 14:40:18;;;;;;;9.40;4.30;;;;;;;;;;5055563;28;20385;-85
2023/02/04 14:42:44;;;;;;;8.40;4.22;;;;;;;;;;5068273;28;20414;-87